sensor_id;sensor_type;location;lat;lon;timestamp;P1;durP1;ratioP1;P2;durP2;ratioP2
59308;SDS011;48433;53.016;-2.260;2023-07-24T00:02:03;5.68;;;1.98;;
59308;SDS011;48433;53.016;-2.260;2023-07-24T00:04:31;4.03;;;1.80;;
59308;SDS011;48433;53.016;-2.260;2023-07-24T00:06:59;5.38;;;2.05;;
59308;SDS011;48433;53.016;-2.260;2023-07-24T00:09:27;4.32;;;1.90;;
59308;SDS011;48433;53.016;-2.260;2023-07-24T00:11:55;4.55;;;1.88;;
59308;SDS011;48433;53.016;-2.260;2023-07-24T00:14:23;4.68;;;1.90;;
59308;SDS011;48433;53.016;-2.260;2023-07-24T00:16:50;4.20;;;1.73;;
59308;SDS011;48433;53.016;-2.260;2023-07-24T00:19:18;4.30;;;1.55;;
59308;SDS011;48433;53.016;-2.260;2023-07-24T00:21:46;3.90;;;1.75;;
59308;SDS011;48433;53.016;-2.260;2023-07-24T00:24:13;4.55;;;1.88;;
59308;SDS011;48433;53.016;-2.260;2023-07-24T00:26:41;5.57;;;1.90;;
59308;SDS011;48433;53.016;-2.260;2023-07-24T00:29:09;4.20;;;1.77;;
59308;SDS011;48433;53.016;-2.260;2023-07-24T00:31:36;4.63;;;2.13;;
59308;SDS011;48433;53.016;-2.260;2023-07-24T00:34:04;3.92;;;1.80;;
59308;SDS011;48433;53.016;-2.260;2023-07-24T00:36:32;5.15;;;1.70;;
59308;SDS011;48433;53.016;-2.260;2023-07-24T00:39:00;4.90;;;2.10;;
59308;SDS011;48433;53.016;-2.260;2023-07-24T00:41:30;4.72;;;1.80;;
59308;SDS011;48433;53.016;-2.260;2023-07-24T00:43:58;5.57;;;2.22;;
59308;SDS011;48433;53.016;-2.260;2023-07-24T00:46:27;4.50;;;1.90;;
59308;SDS011;48433;53.016;-2.260;2023-07-24T00:49:00;4.80;;;1.92;;
59308;SDS011;48433;53.016;-2.260;2023-07-24T00:51:31;3.40;;;1.63;;
59308;SDS011;48433;53.016;-2.260;2023-07-24T00:54:01;4.20;;;1.60;;
59308;SDS011;48433;53.016;-2.260;2023-07-24T00:56:30;3.83;;;1.70;;
59308;SDS011;48433;53.016;-2.260;2023-07-24T00:58:59;4.72;;;2.05;;
59308;SDS011;48433;53.016;-2.260;2023-07-24T01:01:28;3.38;;;1.40;;
59308;SDS011;48433;53.016;-2.260;2023-07-24T01:03:56;3.88;;;1.60;;
59308;SDS011;48433;53.016;-2.260;2023-07-24T01:06:25;4.57;;;1.83;;
59308;SDS011;48433;53.016;-2.260;2023-07-24T01:08:53;4.22;;;1.63;;
59308;SDS011;48433;53.016;-2.260;2023-07-24T01:11:27;4.35;;;1.67;;
59308;SDS011;48433;53.016;-2.260;2023-07-24T01:16:38;3.58;;;1.70;;
59308;SDS011;48433;53.016;-2.260;2023-07-24T01:19:13;4.28;;;1.50;;
59308;SDS011;48433;53.016;-2.260;2023-07-24T01:22:01;3.63;;;1.50;;
59308;SDS011;48433;53.016;-2.260;2023-07-24T01:27:42;3.50;;;1.50;;
59308;SDS011;48433;53.016;-2.260;2023-07-24T01:30:11;2.63;;;1.17;;
59308;SDS011;48433;53.016;-2.260;2023-07-24T01:32:39;4.15;;;1.67;;
59308;SDS011;48433;53.016;-2.260;2023-07-24T01:35:08;3.20;;;1.25;;
59308;SDS011;48433;53.016;-2.260;2023-07-24T01:37:36;4.28;;;1.48;;
59308;SDS011;48433;53.016;-2.260;2023-07-24T01:40:06;3.35;;;1.45;;
59308;SDS011;48433;53.016;-2.260;2023-07-24T01:42:35;3.35;;;1.50;;
59308;SDS011;48433;53.016;-2.260;2023-07-24T01:45:03;5.35;;;1.67;;
59308;SDS011;48433;53.016;-2.260;2023-07-24T01:47:32;3.65;;;1.65;;
59308;SDS011;48433;53.016;-2.260;2023-07-24T01:50:00;5.35;;;2.03;;
59308;SDS011;48433;53.016;-2.260;2023-07-24T01:52:27;4.05;;;1.63;;
59308;SDS011;48433;53.016;-2.260;2023-07-24T01:54:55;4.43;;;2.05;;
59308;SDS011;48433;53.016;-2.260;2023-07-24T01:57:23;5.35;;;1.80;;
59308;SDS011;48433;53.016;-2.260;2023-07-24T01:59:50;4.90;;;2.13;;
59308;SDS011;48433;53.016;-2.260;2023-07-24T02:02:18;5.28;;;2.25;;
59308;SDS011;48433;53.016;-2.260;2023-07-24T02:04:46;5.63;;;2.33;;
59308;SDS011;48433;53.016;-2.260;2023-07-24T02:07:14;4.35;;;1.90;;
59308;SDS011;48433;53.016;-2.260;2023-07-24T02:09:41;4.38;;;2.17;;
59308;SDS011;48433;53.016;-2.260;2023-07-24T02:12:09;7.32;;;2.50;;
59308;SDS011;48433;53.016;-2.260;2023-07-24T02:14:37;5.75;;;2.22;;
59308;SDS011;48433;53.016;-2.260;2023-07-24T02:17:04;4.65;;;2.30;;
59308;SDS011;48433;53.016;-2.260;2023-07-24T02:19:32;4.03;;;2.03;;
59308;SDS011;48433;53.016;-2.260;2023-07-24T02:22:00;4.35;;;2.00;;
59308;SDS011;48433;53.016;-2.260;2023-07-24T02:24:27;5.57;;;2.53;;
59308;SDS011;48433;53.016;-2.260;2023-07-24T02:26:58;5.88;;;2.75;;
59308;SDS011;48433;53.016;-2.260;2023-07-24T02:29:25;9.15;;;2.83;;
59308;SDS011;48433;53.016;-2.260;2023-07-24T02:31:53;5.85;;;2.40;;
59308;SDS011;48433;53.016;-2.260;2023-07-24T02:34:22;5.63;;;2.92;;
59308;SDS011;48433;53.016;-2.260;2023-07-24T02:36:53;6.10;;;3.10;;
59308;SDS011;48433;53.016;-2.260;2023-07-24T02:39:21;6.95;;;3.10;;
59308;SDS011;48433;53.016;-2.260;2023-07-24T02:41:48;7.70;;;3.33;;
59308;SDS011;48433;53.016;-2.260;2023-07-24T02:44:17;6.32;;;3.95;;
59308;SDS011;48433;53.016;-2.260;2023-07-24T02:46:44;8.07;;;4.13;;
59308;SDS011;48433;53.016;-2.260;2023-07-24T02:49:12;6.40;;;3.67;;
59308;SDS011;48433;53.016;-2.260;2023-07-24T02:51:40;6.93;;;3.08;;
59308;SDS011;48433;53.016;-2.260;2023-07-24T02:54:07;5.90;;;2.58;;
59308;SDS011;48433;53.016;-2.260;2023-07-24T02:56:35;6.13;;;3.03;;
59308;SDS011;48433;53.016;-2.260;2023-07-24T02:59:02;7.68;;;2.85;;
59308;SDS011;48433;53.016;-2.260;2023-07-24T03:01:30;5.65;;;2.63;;
59308;SDS011;48433;53.016;-2.260;2023-07-24T03:03:58;6.88;;;2.90;;
59308;SDS011;48433;53.016;-2.260;2023-07-24T03:06:26;5.07;;;3.00;;
59308;SDS011;48433;53.016;-2.260;2023-07-24T03:08:54;6.22;;;2.55;;
59308;SDS011;48433;53.016;-2.260;2023-07-24T03:11:21;6.15;;;2.72;;
59308;SDS011;48433;53.016;-2.260;2023-07-24T03:13:49;5.75;;;2.83;;
59308;SDS011;48433;53.016;-2.260;2023-07-24T03:16:17;8.30;;;3.40;;
59308;SDS011;48433;53.016;-2.260;2023-07-24T03:18:46;6.15;;;3.30;;
59308;SDS011;48433;53.016;-2.260;2023-07-24T03:21:14;7.28;;;3.80;;
59308;SDS011;48433;53.016;-2.260;2023-07-24T03:23:42;8.13;;;4.05;;
59308;SDS011;48433;53.016;-2.260;2023-07-24T03:26:09;6.28;;;3.55;;
59308;SDS011;48433;53.016;-2.260;2023-07-24T03:28:37;8.00;;;4.40;;
59308;SDS011;48433;53.016;-2.260;2023-07-24T03:31:05;8.18;;;4.50;;
59308;SDS011;48433;53.016;-2.260;2023-07-24T03:33:32;8.57;;;4.30;;
59308;SDS011;48433;53.016;-2.260;2023-07-24T03:36:00;8.25;;;4.72;;
59308;SDS011;48433;53.016;-2.260;2023-07-24T03:38:28;6.80;;;3.80;;
59308;SDS011;48433;53.016;-2.260;2023-07-24T03:40:55;8.18;;;3.88;;
59308;SDS011;48433;53.016;-2.260;2023-07-24T03:43:23;7.63;;;3.60;;
59308;SDS011;48433;53.016;-2.260;2023-07-24T03:45:51;8.15;;;2.80;;
59308;SDS011;48433;53.016;-2.260;2023-07-24T03:48:19;5.53;;;2.88;;
59308;SDS011;48433;53.016;-2.260;2023-07-24T03:50:46;5.32;;;2.38;;
59308;SDS011;48433;53.016;-2.260;2023-07-24T03:53:16;5.13;;;2.40;;
59308;SDS011;48433;53.016;-2.260;2023-07-24T03:55:43;7.97;;;2.47;;
59308;SDS011;48433;53.016;-2.260;2023-07-24T03:58:11;5.97;;;2.42;;
59308;SDS011;48433;53.016;-2.260;2023-07-24T04:00:39;6.05;;;2.72;;
59308;SDS011;48433;53.016;-2.260;2023-07-24T04:03:06;6.50;;;2.60;;
59308;SDS011;48433;53.016;-2.260;2023-07-24T04:05:35;4.65;;;2.25;;
59308;SDS011;48433;53.016;-2.260;2023-07-24T04:08:03;5.78;;;2.55;;
59308;SDS011;48433;53.016;-2.260;2023-07-24T04:10:30;4.63;;;2.40;;
59308;SDS011;48433;53.016;-2.260;2023-07-24T04:12:58;5.70;;;2.40;;
59308;SDS011;48433;53.016;-2.260;2023-07-24T04:15:26;7.35;;;2.63;;
59308;SDS011;48433;53.016;-2.260;2023-07-24T04:17:53;4.80;;;2.13;;
59308;SDS011;48433;53.016;-2.260;2023-07-24T04:20:21;5.07;;;2.35;;
59308;SDS011;48433;53.016;-2.260;2023-07-24T04:25:41;5.78;;;2.60;;
59308;SDS011;48433;53.016;-2.260;2023-07-24T04:28:08;6.85;;;2.47;;
59308;SDS011;48433;53.016;-2.260;2023-07-24T04:30:36;5.15;;;2.63;;
59308;SDS011;48433;53.016;-2.260;2023-07-24T04:33:03;6.47;;;2.92;;
59308;SDS011;48433;53.016;-2.260;2023-07-24T04:35:31;6.05;;;3.10;;
59308;SDS011;48433;53.016;-2.260;2023-07-24T04:37:59;6.07;;;3.13;;
59308;SDS011;48433;53.016;-2.260;2023-07-24T04:40:26;9.45;;;4.93;;
59308;SDS011;48433;53.016;-2.260;2023-07-24T04:42:54;8.93;;;4.65;;
59308;SDS011;48433;53.016;-2.260;2023-07-24T04:45:21;8.63;;;5.25;;
59308;SDS011;48433;53.016;-2.260;2023-07-24T04:47:50;11.32;;;5.22;;
59308;SDS011;48433;53.016;-2.260;2023-07-24T04:50:17;8.43;;;5.28;;
59308;SDS011;48433;53.016;-2.260;2023-07-24T04:52:45;11.20;;;6.47;;
59308;SDS011;48433;53.016;-2.260;2023-07-24T04:55:13;10.80;;;6.70;;
59308;SDS011;48433;53.016;-2.260;2023-07-24T04:57:40;10.93;;;5.90;;
59308;SDS011;48433;53.016;-2.260;2023-07-24T05:00:08;10.98;;;6.30;;
59308;SDS011;48433;53.016;-2.260;2023-07-24T05:02:36;11.55;;;7.15;;
59308;SDS011;48433;53.016;-2.260;2023-07-24T05:05:04;11.55;;;7.18;;
59308;SDS011;48433;53.016;-2.260;2023-07-24T05:07:32;11.90;;;7.25;;
59308;SDS011;48433;53.016;-2.260;2023-07-24T05:10:00;10.93;;;6.85;;
59308;SDS011;48433;53.016;-2.260;2023-07-24T05:12:28;9.60;;;6.15;;
59308;SDS011;48433;53.016;-2.260;2023-07-24T05:14:55;11.43;;;6.40;;
59308;SDS011;48433;53.016;-2.260;2023-07-24T05:17:23;16.05;;;6.55;;
59308;SDS011;48433;53.016;-2.260;2023-07-24T05:19:51;10.65;;;6.05;;
59308;SDS011;48433;53.016;-2.260;2023-07-24T05:22:18;10.30;;;5.70;;
59308;SDS011;48433;53.016;-2.260;2023-07-24T05:24:46;10.63;;;6.18;;
59308;SDS011;48433;53.016;-2.260;2023-07-24T05:27:13;10.98;;;6.82;;
59308;SDS011;48433;53.016;-2.260;2023-07-24T05:29:43;12.93;;;6.00;;
59308;SDS011;48433;53.016;-2.260;2023-07-24T05:32:12;11.10;;;6.15;;
59308;SDS011;48433;53.016;-2.260;2023-07-24T05:34:39;10.45;;;5.88;;
59308;SDS011;48433;53.016;-2.260;2023-07-24T05:37:09;11.38;;;6.38;;
59308;SDS011;48433;53.016;-2.260;2023-07-24T05:39:37;17.55;;;6.90;;
59308;SDS011;48433;53.016;-2.260;2023-07-24T05:42:04;13.68;;;6.15;;
59308;SDS011;48433;53.016;-2.260;2023-07-24T05:44:32;14.75;;;6.80;;
59308;SDS011;48433;53.016;-2.260;2023-07-24T05:47:00;10.63;;;6.22;;
59308;SDS011;48433;53.016;-2.260;2023-07-24T05:49:27;11.93;;;6.18;;
59308;SDS011;48433;53.016;-2.260;2023-07-24T05:51:55;10.32;;;5.97;;
59308;SDS011;48433;53.016;-2.260;2023-07-24T05:54:24;10.07;;;5.72;;
59308;SDS011;48433;53.016;-2.260;2023-07-24T05:56:52;11.63;;;6.47;;
59308;SDS011;48433;53.016;-2.260;2023-07-24T05:59:19;10.00;;;5.95;;
59308;SDS011;48433;53.016;-2.260;2023-07-24T06:01:47;12.30;;;6.53;;
59308;SDS011;48433;53.016;-2.260;2023-07-24T06:04:14;13.25;;;6.13;;
59308;SDS011;48433;53.016;-2.260;2023-07-24T06:06:43;14.40;;;6.15;;
59308;SDS011;48433;53.016;-2.260;2023-07-24T06:09:10;13.73;;;6.40;;
59308;SDS011;48433;53.016;-2.260;2023-07-24T06:11:38;12.93;;;6.63;;
59308;SDS011;48433;53.016;-2.260;2023-07-24T06:14:05;11.60;;;6.43;;
59308;SDS011;48433;53.016;-2.260;2023-07-24T06:16:33;17.33;;;7.35;;
59308;SDS011;48433;53.016;-2.260;2023-07-24T06:19:01;15.27;;;6.55;;
59308;SDS011;48433;53.016;-2.260;2023-07-24T06:21:29;14.65;;;6.68;;
59308;SDS011;48433;53.016;-2.260;2023-07-24T06:23:56;14.82;;;6.00;;
59308;SDS011;48433;53.016;-2.260;2023-07-24T06:26:24;12.43;;;6.03;;
59308;SDS011;48433;53.016;-2.260;2023-07-24T06:28:52;11.85;;;5.60;;
59308;SDS011;48433;53.016;-2.260;2023-07-24T06:31:19;10.55;;;6.30;;
59308;SDS011;48433;53.016;-2.260;2023-07-24T06:33:47;12.10;;;6.20;;
59308;SDS011;48433;53.016;-2.260;2023-07-24T06:36:15;14.13;;;6.40;;
59308;SDS011;48433;53.016;-2.260;2023-07-24T06:38:42;14.00;;;5.70;;
59308;SDS011;48433;53.016;-2.260;2023-07-24T06:41:10;10.93;;;5.97;;
59308;SDS011;48433;53.016;-2.260;2023-07-24T06:43:38;11.75;;;5.75;;
59308;SDS011;48433;53.016;-2.260;2023-07-24T06:46:06;14.15;;;5.60;;
59308;SDS011;48433;53.016;-2.260;2023-07-24T06:48:33;11.52;;;6.63;;
59308;SDS011;48433;53.016;-2.260;2023-07-24T06:51:01;19.73;;;6.07;;
59308;SDS011;48433;53.016;-2.260;2023-07-24T06:53:29;12.50;;;7.03;;
59308;SDS011;48433;53.016;-2.260;2023-07-24T06:55:56;13.65;;;5.65;;
59308;SDS011;48433;53.016;-2.260;2023-07-24T06:58:24;15.23;;;6.50;;
59308;SDS011;48433;53.016;-2.260;2023-07-24T07:00:52;12.65;;;5.38;;
59308;SDS011;48433;53.016;-2.260;2023-07-24T07:03:20;12.13;;;5.13;;
59308;SDS011;48433;53.016;-2.260;2023-07-24T07:05:47;13.15;;;5.10;;
59308;SDS011;48433;53.016;-2.260;2023-07-24T07:08:15;15.90;;;4.93;;
59308;SDS011;48433;53.016;-2.260;2023-07-24T07:10:42;14.75;;;5.75;;
59308;SDS011;48433;53.016;-2.260;2023-07-24T07:13:10;13.75;;;6.03;;
59308;SDS011;48433;53.016;-2.260;2023-07-24T07:15:38;14.13;;;6.65;;
59308;SDS011;48433;53.016;-2.260;2023-07-24T07:18:05;13.48;;;5.47;;
59308;SDS011;48433;53.016;-2.260;2023-07-24T07:20:33;13.60;;;5.53;;
59308;SDS011;48433;53.016;-2.260;2023-07-24T07:23:01;12.82;;;4.78;;
59308;SDS011;48433;53.016;-2.260;2023-07-24T07:25:28;10.85;;;4.75;;
59308;SDS011;48433;53.016;-2.260;2023-07-24T07:27:56;16.48;;;4.90;;
59308;SDS011;48433;53.016;-2.260;2023-07-24T07:30:23;13.00;;;4.22;;
59308;SDS011;48433;53.016;-2.260;2023-07-24T07:32:51;11.75;;;4.18;;
59308;SDS011;48433;53.016;-2.260;2023-07-24T07:35:19;15.35;;;4.75;;
59308;SDS011;48433;53.016;-2.260;2023-07-24T07:37:46;10.88;;;4.10;;
59308;SDS011;48433;53.016;-2.260;2023-07-24T07:40:14;13.23;;;5.07;;
59308;SDS011;48433;53.016;-2.260;2023-07-24T07:42:41;15.95;;;4.90;;
59308;SDS011;48433;53.016;-2.260;2023-07-24T07:45:11;18.88;;;5.22;;
59308;SDS011;48433;53.016;-2.260;2023-07-24T07:47:38;11.23;;;4.30;;
59308;SDS011;48433;53.016;-2.260;2023-07-24T07:50:06;14.45;;;4.18;;
59308;SDS011;48433;53.016;-2.260;2023-07-24T07:52:34;12.68;;;4.50;;
59308;SDS011;48433;53.016;-2.260;2023-07-24T07:55:03;13.07;;;4.57;;
59308;SDS011;48433;53.016;-2.260;2023-07-24T07:57:36;10.90;;;3.72;;
59308;SDS011;48433;53.016;-2.260;2023-07-24T08:00:04;9.48;;;3.80;;
59308;SDS011;48433;53.016;-2.260;2023-07-24T08:02:33;14.95;;;4.10;;
59308;SDS011;48433;53.016;-2.260;2023-07-24T08:05:01;11.75;;;3.72;;
59308;SDS011;48433;53.016;-2.260;2023-07-24T08:07:38;10.52;;;3.67;;
59308;SDS011;48433;53.016;-2.260;2023-07-24T08:10:06;14.95;;;3.47;;
59308;SDS011;48433;53.016;-2.260;2023-07-24T08:12:34;11.27;;;2.97;;
59308;SDS011;48433;53.016;-2.260;2023-07-24T08:15:02;9.48;;;3.17;;
59308;SDS011;48433;53.016;-2.260;2023-07-24T08:17:30;14.50;;;3.63;;
59308;SDS011;48433;53.016;-2.260;2023-07-24T08:19:58;15.70;;;3.63;;
59308;SDS011;48433;53.016;-2.260;2023-07-24T08:22:25;12.60;;;3.88;;
59308;SDS011;48433;53.016;-2.260;2023-07-24T08:24:53;10.68;;;3.20;;
59308;SDS011;48433;53.016;-2.260;2023-07-24T08:27:23;9.57;;;3.65;;
59308;SDS011;48433;53.016;-2.260;2023-07-24T08:29:51;10.38;;;3.92;;
59308;SDS011;48433;53.016;-2.260;2023-07-24T08:32:22;8.48;;;3.58;;
59308;SDS011;48433;53.016;-2.260;2023-07-24T08:34:49;10.20;;;3.88;;
59308;SDS011;48433;53.016;-2.260;2023-07-24T08:37:17;10.52;;;3.58;;
59308;SDS011;48433;53.016;-2.260;2023-07-24T08:39:45;8.65;;;3.65;;
59308;SDS011;48433;53.016;-2.260;2023-07-24T08:42:12;17.73;;;4.30;;
59308;SDS011;48433;53.016;-2.260;2023-07-24T08:44:40;10.52;;;3.90;;
59308;SDS011;48433;53.016;-2.260;2023-07-24T08:47:10;9.77;;;3.17;;
59308;SDS011;48433;53.016;-2.260;2023-07-24T08:49:40;11.80;;;3.87;;
59308;SDS011;48433;53.016;-2.260;2023-07-24T08:52:10;10.32;;;4.10;;
59308;SDS011;48433;53.016;-2.260;2023-07-24T08:54:56;10.63;;;3.70;;
59308;SDS011;48433;53.016;-2.260;2023-07-24T08:57:27;13.48;;;4.53;;
59308;SDS011;48433;53.016;-2.260;2023-07-24T08:59:55;11.27;;;3.30;;
59308;SDS011;48433;53.016;-2.260;2023-07-24T09:02:23;11.13;;;3.70;;
59308;SDS011;48433;53.016;-2.260;2023-07-24T09:04:50;10.80;;;3.47;;
59308;SDS011;48433;53.016;-2.260;2023-07-24T09:07:18;8.68;;;3.13;;
59308;SDS011;48433;53.016;-2.260;2023-07-24T09:09:47;10.88;;;3.88;;
59308;SDS011;48433;53.016;-2.260;2023-07-24T09:12:17;11.88;;;4.00;;
59308;SDS011;48433;53.016;-2.260;2023-07-24T09:14:45;14.70;;;4.07;;
59308;SDS011;48433;53.016;-2.260;2023-07-24T09:17:13;11.35;;;3.00;;
59308;SDS011;48433;53.016;-2.260;2023-07-24T09:19:41;14.43;;;3.15;;
59308;SDS011;48433;53.016;-2.260;2023-07-24T09:22:13;6.90;;;2.53;;
59308;SDS011;48433;53.016;-2.260;2023-07-24T09:24:52;9.63;;;3.28;;
59308;SDS011;48433;53.016;-2.260;2023-07-24T09:27:24;7.80;;;2.40;;
59308;SDS011;48433;53.016;-2.260;2023-07-24T09:29:54;8.18;;;2.40;;
59308;SDS011;48433;53.016;-2.260;2023-07-24T09:32:24;8.00;;;3.35;;
59308;SDS011;48433;53.016;-2.260;2023-07-24T09:34:53;7.70;;;2.47;;
59308;SDS011;48433;53.016;-2.260;2023-07-24T09:37:30;7.95;;;2.38;;
59308;SDS011;48433;53.016;-2.260;2023-07-24T09:40:03;6.68;;;2.15;;
59308;SDS011;48433;53.016;-2.260;2023-07-24T09:42:31;6.18;;;2.25;;
59308;SDS011;48433;53.016;-2.260;2023-07-24T09:45:04;5.90;;;1.77;;
59308;SDS011;48433;53.016;-2.260;2023-07-24T09:47:33;6.82;;;2.15;;
59308;SDS011;48433;53.016;-2.260;2023-07-24T09:50:22;8.65;;;2.17;;
59308;SDS011;48433;53.016;-2.260;2023-07-24T09:52:50;8.77;;;2.33;;
59308;SDS011;48433;53.016;-2.260;2023-07-24T09:55:21;10.20;;;2.00;;
59308;SDS011;48433;53.016;-2.260;2023-07-24T09:57:56;5.95;;;2.03;;
59308;SDS011;48433;53.016;-2.260;2023-07-24T10:00:25;11.13;;;3.30;;
59308;SDS011;48433;53.016;-2.260;2023-07-24T10:02:54;8.02;;;2.17;;
59308;SDS011;48433;53.016;-2.260;2023-07-24T10:05:22;6.20;;;1.65;;
59308;SDS011;48433;53.016;-2.260;2023-07-24T10:07:50;6.80;;;2.17;;
59308;SDS011;48433;53.016;-2.260;2023-07-24T10:10:19;6.18;;;2.05;;
59308;SDS011;48433;53.016;-2.260;2023-07-24T10:12:48;5.07;;;1.85;;
59308;SDS011;48433;53.016;-2.260;2023-07-24T10:15:17;9.00;;;2.10;;
59308;SDS011;48433;53.016;-2.260;2023-07-24T10:17:46;6.32;;;1.80;;
59308;SDS011;48433;53.016;-2.260;2023-07-24T10:20:15;7.72;;;1.70;;
59308;SDS011;48433;53.016;-2.260;2023-07-24T10:22:44;5.22;;;1.55;;
59308;SDS011;48433;53.016;-2.260;2023-07-24T10:25:11;6.32;;;2.08;;
59308;SDS011;48433;53.016;-2.260;2023-07-24T10:27:43;7.13;;;2.13;;
59308;SDS011;48433;53.016;-2.260;2023-07-24T10:30:11;6.95;;;1.95;;
59308;SDS011;48433;53.016;-2.260;2023-07-24T10:33:11;5.40;;;1.70;;
59308;SDS011;48433;53.016;-2.260;2023-07-24T10:35:41;5.95;;;2.00;;
59308;SDS011;48433;53.016;-2.260;2023-07-24T10:38:13;6.53;;;1.77;;
59308;SDS011;48433;53.016;-2.260;2023-07-24T10:40:45;7.35;;;1.70;;
59308;SDS011;48433;53.016;-2.260;2023-07-24T10:43:18;7.70;;;1.60;;
59308;SDS011;48433;53.016;-2.260;2023-07-24T10:48:19;7.43;;;1.65;;
59308;SDS011;48433;53.016;-2.260;2023-07-24T10:50:49;6.57;;;1.95;;
59308;SDS011;48433;53.016;-2.260;2023-07-24T10:53:21;4.90;;;1.67;;
59308;SDS011;48433;53.016;-2.260;2023-07-24T10:55:50;6.00;;;1.55;;
59308;SDS011;48433;53.016;-2.260;2023-07-24T10:58:19;4.93;;;1.60;;
59308;SDS011;48433;53.016;-2.260;2023-07-24T11:00:47;6.47;;;1.67;;
59308;SDS011;48433;53.016;-2.260;2023-07-24T11:03:15;4.07;;;1.42;;
59308;SDS011;48433;53.016;-2.260;2023-07-24T11:05:45;4.70;;;1.42;;
59308;SDS011;48433;53.016;-2.260;2023-07-24T11:08:17;4.65;;;1.40;;
59308;SDS011;48433;53.016;-2.260;2023-07-24T11:10:53;5.82;;;1.35;;
59308;SDS011;48433;53.016;-2.260;2023-07-24T11:13:26;4.72;;;1.20;;
59308;SDS011;48433;53.016;-2.260;2023-07-24T11:15:55;7.82;;;1.83;;
59308;SDS011;48433;53.016;-2.260;2023-07-24T11:18:23;5.30;;;1.35;;
59308;SDS011;48433;53.016;-2.260;2023-07-24T11:21:03;9.07;;;1.67;;
59308;SDS011;48433;53.016;-2.260;2023-07-24T11:23:32;6.07;;;1.50;;
59308;SDS011;48433;53.016;-2.260;2023-07-24T11:26:00;4.80;;;1.88;;
59308;SDS011;48433;53.016;-2.260;2023-07-24T11:28:38;8.30;;;1.90;;
59308;SDS011;48433;53.016;-2.260;2023-07-24T11:31:07;8.38;;;1.73;;
59308;SDS011;48433;53.016;-2.260;2023-07-24T11:33:35;6.53;;;1.65;;
59308;SDS011;48433;53.016;-2.260;2023-07-24T11:36:04;7.53;;;1.80;;
59308;SDS011;48433;53.016;-2.260;2023-07-24T11:38:32;5.65;;;1.98;;
59308;SDS011;48433;53.016;-2.260;2023-07-24T11:41:00;4.78;;;1.80;;
59308;SDS011;48433;53.016;-2.260;2023-07-24T11:43:30;7.93;;;1.80;;
59308;SDS011;48433;53.016;-2.260;2023-07-24T11:45:58;6.20;;;1.88;;
59308;SDS011;48433;53.016;-2.260;2023-07-24T11:48:25;8.15;;;2.13;;
59308;SDS011;48433;53.016;-2.260;2023-07-24T11:50:54;5.78;;;1.80;;
59308;SDS011;48433;53.016;-2.260;2023-07-24T11:55:52;6.18;;;1.70;;
59308;SDS011;48433;53.016;-2.260;2023-07-24T11:58:21;11.27;;;1.75;;
59308;SDS011;48433;53.016;-2.260;2023-07-24T12:00:49;7.90;;;1.77;;
59308;SDS011;48433;53.016;-2.260;2023-07-24T12:03:19;8.18;;;1.80;;
59308;SDS011;48433;53.016;-2.260;2023-07-24T12:05:55;6.03;;;1.75;;
59308;SDS011;48433;53.016;-2.260;2023-07-24T12:08:30;8.38;;;2.25;;
59308;SDS011;48433;53.016;-2.260;2023-07-24T12:10:59;5.50;;;1.80;;
59308;SDS011;48433;53.016;-2.260;2023-07-24T12:13:27;6.88;;;2.03;;
59308;SDS011;48433;53.016;-2.260;2023-07-24T12:15:55;6.25;;;1.80;;
59308;SDS011;48433;53.016;-2.260;2023-07-24T12:18:23;6.00;;;1.92;;
59308;SDS011;48433;53.016;-2.260;2023-07-24T12:20:50;6.57;;;2.10;;
59308;SDS011;48433;53.016;-2.260;2023-07-24T12:23:18;8.25;;;2.03;;
59308;SDS011;48433;53.016;-2.260;2023-07-24T12:25:47;7.40;;;2.53;;
59308;SDS011;48433;53.016;-2.260;2023-07-24T12:28:14;8.75;;;3.10;;
59308;SDS011;48433;53.016;-2.260;2023-07-24T12:30:42;5.72;;;1.95;;
59308;SDS011;48433;53.016;-2.260;2023-07-24T12:33:10;7.72;;;2.40;;
59308;SDS011;48433;53.016;-2.260;2023-07-24T12:35:37;5.30;;;2.03;;
59308;SDS011;48433;53.016;-2.260;2023-07-24T12:38:05;5.65;;;1.95;;
59308;SDS011;48433;53.016;-2.260;2023-07-24T12:40:33;9.60;;;2.28;;
59308;SDS011;48433;53.016;-2.260;2023-07-24T12:43:00;4.82;;;1.70;;
59308;SDS011;48433;53.016;-2.260;2023-07-24T12:45:28;7.65;;;2.25;;
59308;SDS011;48433;53.016;-2.260;2023-07-24T12:47:56;5.50;;;1.90;;
59308;SDS011;48433;53.016;-2.260;2023-07-24T12:50:23;7.90;;;1.83;;
59308;SDS011;48433;53.016;-2.260;2023-07-24T12:52:51;6.70;;;2.05;;
59308;SDS011;48433;53.016;-2.260;2023-07-24T12:55:19;5.53;;;1.67;;
59308;SDS011;48433;53.016;-2.260;2023-07-24T12:57:47;7.72;;;1.92;;
59308;SDS011;48433;53.016;-2.260;2023-07-24T13:00:14;5.72;;;2.28;;
59308;SDS011;48433;53.016;-2.260;2023-07-24T13:02:42;5.93;;;2.00;;
59308;SDS011;48433;53.016;-2.260;2023-07-24T13:05:10;11.77;;;2.25;;
59308;SDS011;48433;53.016;-2.260;2023-07-24T13:07:39;6.30;;;2.20;;
59308;SDS011;48433;53.016;-2.260;2023-07-24T13:10:06;7.15;;;2.15;;
59308;SDS011;48433;53.016;-2.260;2023-07-24T13:12:35;5.60;;;1.75;;
59308;SDS011;48433;53.016;-2.260;2023-07-24T13:15:02;5.22;;;2.00;;
59308;SDS011;48433;53.016;-2.260;2023-07-24T13:17:30;7.10;;;1.98;;
59308;SDS011;48433;53.016;-2.260;2023-07-24T13:19:58;5.40;;;1.67;;
59308;SDS011;48433;53.016;-2.260;2023-07-24T13:22:26;4.85;;;1.80;;
59308;SDS011;48433;53.016;-2.260;2023-07-24T13:24:53;7.22;;;2.08;;
59308;SDS011;48433;53.016;-2.260;2023-07-24T13:27:21;6.70;;;2.05;;
59308;SDS011;48433;53.016;-2.260;2023-07-24T13:29:49;4.20;;;1.70;;
59308;SDS011;48433;53.016;-2.260;2023-07-24T13:32:16;4.65;;;1.77;;
59308;SDS011;48433;53.016;-2.260;2023-07-24T13:34:44;8.30;;;1.90;;
59308;SDS011;48433;53.016;-2.260;2023-07-24T13:37:12;4.60;;;1.67;;
59308;SDS011;48433;53.016;-2.260;2023-07-24T13:39:40;7.53;;;2.03;;
59308;SDS011;48433;53.016;-2.260;2023-07-24T13:42:07;4.95;;;1.67;;
59308;SDS011;48433;53.016;-2.260;2023-07-24T13:44:35;5.15;;;1.60;;
59308;SDS011;48433;53.016;-2.260;2023-07-24T13:47:03;5.35;;;1.73;;
59308;SDS011;48433;53.016;-2.260;2023-07-24T13:49:31;5.20;;;1.83;;
59308;SDS011;48433;53.016;-2.260;2023-07-24T13:51:58;3.88;;;1.60;;
59308;SDS011;48433;53.016;-2.260;2023-07-24T13:54:26;4.32;;;1.80;;
59308;SDS011;48433;53.016;-2.260;2023-07-24T13:56:53;6.30;;;1.60;;
59308;SDS011;48433;53.016;-2.260;2023-07-24T13:59:21;6.28;;;1.75;;
59308;SDS011;48433;53.016;-2.260;2023-07-24T14:01:48;3.67;;;1.40;;
59308;SDS011;48433;53.016;-2.260;2023-07-24T14:04:16;4.45;;;1.58;;
59308;SDS011;48433;53.016;-2.260;2023-07-24T14:06:44;4.28;;;1.30;;
59308;SDS011;48433;53.016;-2.260;2023-07-24T14:09:11;4.13;;;1.48;;
59308;SDS011;48433;53.016;-2.260;2023-07-24T14:11:39;5.20;;;1.35;;
59308;SDS011;48433;53.016;-2.260;2023-07-24T14:14:07;5.07;;;1.63;;
59308;SDS011;48433;53.016;-2.260;2023-07-24T14:16:34;5.28;;;1.73;;
59308;SDS011;48433;53.016;-2.260;2023-07-24T14:19:02;6.22;;;1.50;;
59308;SDS011;48433;53.016;-2.260;2023-07-24T14:21:30;6.53;;;1.73;;
59308;SDS011;48433;53.016;-2.260;2023-07-24T14:23:58;5.88;;;1.52;;
59308;SDS011;48433;53.016;-2.260;2023-07-24T14:26:25;10.85;;;1.88;;
59308;SDS011;48433;53.016;-2.260;2023-07-24T14:28:53;5.03;;;1.70;;
59308;SDS011;48433;53.016;-2.260;2023-07-24T14:31:23;5.85;;;1.73;;
59308;SDS011;48433;53.016;-2.260;2023-07-24T14:33:51;6.55;;;2.13;;
59308;SDS011;48433;53.016;-2.260;2023-07-24T14:36:19;6.95;;;2.00;;
59308;SDS011;48433;53.016;-2.260;2023-07-24T14:38:46;4.47;;;1.60;;
59308;SDS011;48433;53.016;-2.260;2023-07-24T14:41:14;3.40;;;1.40;;
59308;SDS011;48433;53.016;-2.260;2023-07-24T14:43:42;4.78;;;1.50;;
59308;SDS011;48433;53.016;-2.260;2023-07-24T14:46:10;5.30;;;1.63;;
59308;SDS011;48433;53.016;-2.260;2023-07-24T14:48:37;4.60;;;1.85;;
59308;SDS011;48433;53.016;-2.260;2023-07-24T14:51:05;6.20;;;2.33;;
59308;SDS011;48433;53.016;-2.260;2023-07-24T14:53:33;6.55;;;2.00;;